Racine, Wisconsin
Current Conditions -  °F | °C
As of 9:53 AM on Saturday 25 Oct 2014 (Local Time) from KRAC Reporting Station
Clear Clear  
Wind Chill: 61°   Ceiling: Unl
Heat Index: 61°   Visibility: 10mi
Dew Point: 49°   Wind: 12mph
Humidity: 64%   Direction: 290°WNW
Pressure: 29.93"   Gusts: NA
Location:  42.73°N, 87.79°W
Report Text: KRAC 251453Z AUTO 29010KT 10SM CLR 16/09 A2993 RMK AO2 SLP133 T01610094 51014
Loading
Personal Weather Stations






























Interactive Weather Map
Tropical Storm Tracking
New forecast layout! Learn more

10-Day Weather Forecast

Advertisements
Track Severe Weather on mobile